Time;durP1;ratioP1;P1;durP2;ratioP2;P2;SDS_P1;SDS_P2;PMS_P1;PMS_P2;Temp;Humidity;BMP_temperature;BMP_pressure;BME280_temperature;BME280_humidity;BME280_pressure;Samples;Min_cycle;Max_cycle;Signal;HPM_P1;HPM_P2
2022/07/03 00:00:29;;;;;;;;;;;;;;;18.90;100.00;101240.72;10416980;28;19945;-64
2022/07/03 00:05:39;;;;;;;;;;;;;;;18.91;100.00;101236.34;10417460;28;19925;-65
2022/07/03 00:10:43;;;;;;;;;;;;;;;18.82;100.00;101237.47;10417224;28;19936;-65
2022/07/03 00:15:46;;;;;;;;;;;;;;;18.81;100.00;101241.00;10417964;28;19936;-67
2022/07/03 00:20:50;;;;;;;;;;;;;;;18.77;100.00;101238.50;10424177;28;20352;-65
2022/07/03 00:25:55;;;;;;;;;;;;;;;18.77;100.00;101233.25;10424029;28;19948;-65
2022/07/03 00:30:58;;;;;;;;;;;;;;;18.66;100.00;101230.94;10423981;28;20333;-65
2022/07/03 00:36:01;;;;;;;;;;;;;;;18.65;100.00;101238.88;10423779;28;19925;-66
2022/07/03 00:41:06;;;;;;;;;;;;;;;18.56;100.00;101242.63;10423807;28;19929;-64
2022/07/03 00:46:09;;;;;;;;;;;;;;;18.58;100.00;101238.19;10423183;28;20260;-66
2022/07/03 00:51:14;;;;;;;;;;;;;;;18.57;100.00;101230.34;10423135;28;19935;-68
2022/07/03 00:56:20;;;;;;;;;;;;;;;18.53;100.00;101219.06;10423461;28;20302;-65
2022/07/03 01:01:24;;;;;;;;;;;;;;;18.56;100.00;101229.47;10422840;28;19925;-66
2022/07/03 01:06:33;;;;;;;;;;;;;;;18.52;100.00;101221.72;10422417;28;19925;-65
2022/07/03 01:11:44;;;;;;;;;;;;;;;18.50;100.00;101215.66;10422579;28;19935;-66
2022/07/03 01:16:53;;;;;;;;;;;;;;;18.51;100.00;101217.38;10422373;28;19925;-66
2022/07/03 01:22:03;;;;;;;;;;;;;;;18.49;100.00;101217.41;10422085;28;19982;-69
2022/07/03 01:27:11;;;;;;;;;;;;;;;18.52;100.00;101213.84;10421916;28;19925;-67
2022/07/03 01:32:15;;;;;;;;;;;;;;;18.50;100.00;101213.84;10421216;28;19925;-66
2022/07/03 01:37:20;;;;;;;;;;;;;;;18.45;100.00;101209.66;10421947;28;19925;-66
2022/07/03 01:42:25;;;;;;;;;;;;;;;18.45;100.00;101204.41;10421207;28;20291;-65
2022/07/03 01:47:29;;;;;;;;;;;;;;;18.38;100.00;101195.78;10420887;28;19932;-65
2022/07/03 01:52:32;;;;;;;;;;;;;;;18.34;100.00;101195.00;10420429;28;19925;-65
2022/07/03 01:57:51;;;;;;;;;;;;;;;18.27;100.00;101184.72;10420563;28;19925;-65
2022/07/03 02:02:57;;;;;;;;;;;;;;;18.22;100.00;101197.97;10420300;28;20272;-67
2022/07/03 02:08:04;;;;;;;;;;;;;;;18.09;100.00;101190.47;10420299;28;19935;-65
2022/07/03 02:13:15;;;;;;;;;;;;;;;18.05;100.00;101192.31;10419486;28;20136;-65
2022/07/03 02:18:26;;;;;;;;;;;;;;;18.04;100.00;101193.25;10419513;28;19932;-64
2022/07/03 02:23:31;;;;;;;;;;;;;;;18.05;100.00;101188.84;10419579;28;19925;-68
2022/07/03 02:28:47;;;;;;;;;;;;;;;18.07;100.00;101187.03;10419471;28;20368;-65
2022/07/03 02:33:51;;;;;;;;;;;;;;;18.07;100.00;101179.16;10419420;28;19925;-68
2022/07/03 02:38:56;;;;;;;;;;;;;;;18.05;100.00;101183.59;10418524;28;19925;-68
2022/07/03 02:44:03;;;;;;;;;;;;;;;17.96;100.00;101184.72;10418861;28;19951;-66
2022/07/03 02:49:12;;;;;;;;;;;;;;;17.90;100.00;101184.88;10418893;28;19928;-67
2022/07/03 02:54:16;;;;;;;;;;;;;;;17.80;100.00;101187.78;10418454;28;19939;-68
2022/07/03 02:59:23;;;;;;;;;;;;;;;17.74;100.00;101182.69;10419168;28;19925;-66
2022/07/03 03:04:30;;;;;;;;;;;;;;;17.75;100.00;101182.66;10418242;28;19935;-65
2022/07/03 03:09:35;;;;;;;;;;;;;;;17.75;100.00;101189.66;10418745;28;20256;-65
2022/07/03 03:14:41;;;;;;;;;;;;;;;17.73;100.00;101186.22;10418560;28;19935;-67
2022/07/03 03:19:46;;;;;;;;;;;;;;;17.64;100.00;101195.19;10417889;28;19943;-64
2022/07/03 03:24:50;;;;;;;;;;;;;;;17.61;100.00;101184.78;10417720;28;19925;-69
2022/07/03 03:29:58;;;;;;;;;;;;;;;17.68;100.00;101188.09;10417877;28;20051;-65
2022/07/03 03:35:02;;;;;;;;;;;;;;;17.63;100.00;101176.84;10417803;28;19925;-66
2022/07/03 03:40:05;;;;;;;;;;;;;;;17.58;100.00;101165.59;10417814;28;20394;-66
2022/07/03 03:45:10;;;;;;;;;;;;;;;17.61;100.00;101165.53;10417917;28;19935;-65
2022/07/03 03:50:13;;;;;;;;;;;;;;;17.60;100.00;101166.44;10417668;28;19965;-65
2022/07/03 03:55:16;;;;;;;;;;;;;;;17.54;100.00;101169.19;10425171;28;19925;-65
2022/07/03 04:00:20;;;;;;;;;;;;;;;17.49;100.00;101160.59;10425196;28;20256;-66
2022/07/03 04:05:23;;;;;;;;;;;;;;;17.54;100.00;101164.81;10424734;28;19937;-65
2022/07/03 04:10:26;;;;;;;;;;;;;;;17.56;100.00;101147.28;10424585;28;19925;-68
2022/07/03 04:15:31;;;;;;;;;;;;;;;17.57;100.00;101151.63;10424285;28;19936;-66
2022/07/03 04:20:34;;;;;;;;;;;;;;;17.59;100.00;101160.31;10424476;28;20395;-67
2022/07/03 04:25:37;;;;;;;;;;;;;;;17.58;100.00;101163.84;10424066;28;19935;-67
2022/07/03 04:30:41;;;;;;;;;;;;;;;17.62;100.00;101162.84;10424312;28;19926;-65
2022/07/03 04:35:44;;;;;;;;;;;;;;;17.68;100.00;101162.72;10424163;28;19925;-69
2022/07/03 04:40:47;;;;;;;;;;;;;;;17.69;100.00;101161.78;10424083;28;19925;-67
2022/07/03 04:45:52;;;;;;;;;;;;;;;17.74;100.00;101161.69;10423412;28;19935;-64
2022/07/03 04:50:55;;;;;;;;;;;;;;;17.82;100.00;101157.97;10423392;28;19926;-70
2022/07/03 04:55:58;;;;;;;;;;;;;;;17.90;100.00;101157.72;10422831;28;19939;-65
2022/07/03 05:01:02;;;;;;;;;;;;;;;17.88;100.00;101164.78;10422608;28;20345;-64
2022/07/03 05:06:05;;;;;;;;;;;;;;;17.95;100.00;101148.81;10421725;28;19935;-67
2022/07/03 05:11:09;;;;;;;;;;;;;;;18.03;100.00;101156.50;10423003;28;19925;-68
2022/07/03 05:16:13;;;;;;;;;;;;;;;17.99;100.00;101162.75;10422374;28;19925;-68
2022/07/03 05:21:17;;;;;;;;;;;;;;;17.98;100.00;101171.53;10422112;28;20345;-68
2022/07/03 05:26:20;;;;;;;;;;;;;;;18.02;100.00;101166.16;10421850;28;19929;-67
2022/07/03 05:31:24;;;;;;;;;;;;;;;18.11;100.00;101159.78;10421372;28;20357;-65
2022/07/03 05:36:27;;;;;;;;;;;;;;;18.28;100.00;101154.91;10421312;28;19935;-67
2022/07/03 05:41:30;;;;;;;;;;;;;;;18.38;100.00;101151.09;10420999;28;19925;-67
2022/07/03 05:46:35;;;;;;;;;;;;;;;18.44;100.00;101145.69;10421053;28;19931;-65
2022/07/03 05:51:38;;;;;;;;;;;;;;;18.43;97.69;101144.81;10421026;28;19964;-73
2022/07/03 05:56:41;;;;;;;;;;;;;;;18.51;94.05;101147.25;10421188;28;19925;-70
2022/07/03 06:01:45;;;;;;;;;;;;;;;18.56;93.63;101157.59;10420033;28;19926;-66
2022/07/03 06:06:48;;;;;;;;;;;;;;;18.73;93.26;101150.06;10420052;28;19925;-67
2022/07/03 06:11:51;;;;;;;;;;;;;;;18.78;90.62;101153.41;10420039;28;19964;-64
2022/07/03 06:16:56;;;;;;;;;;;;;;;18.82;91.14;101148.03;10419645;28;19925;-65
2022/07/03 06:21:59;;;;;;;;;;;;;;;18.88;90.11;101158.34;10419229;28;19936;-67
2022/07/03 06:27:02;;;;;;;;;;;;;;;18.93;89.63;101160.84;10419229;28;19936;-65
2022/07/03 06:32:07;;;;;;;;;;;;;;;18.95;88.07;101162.50;10419296;28;20367;-64
2022/07/03 06:37:10;;;;;;;;;;;;;;;19.07;88.14;101164.75;10419282;28;19925;-65
2022/07/03 06:42:15;;;;;;;;;;;;;;;19.11;87.35;101165.50;10418803;28;19925;-66
2022/07/03 06:47:19;;;;;;;;;;;;;;;19.17;87.42;101162.69;10418856;28;19929;-71
2022/07/03 06:52:22;;;;;;;;;;;;;;;19.18;85.82;101164.41;10418668;28;19925;-67
2022/07/03 06:57:25;;;;;;;;;;;;;;;19.25;83.39;101153.66;10418558;28;20248;-68
2022/07/03 07:02:29;;;;;;;;;;;;;;;19.37;84.40;101160.31;10418154;28;19929;-66
2022/07/03 07:07:32;;;;;;;;;;;;;;;19.44;81.92;101141.63;10418328;28;19948;-67
2022/07/03 07:12:35;;;;;;;;;;;;;;;19.51;80.87;101123.84;10418500;28;19935;-65
2022/07/03 07:17:42;;;;;;;;;;;;;;;19.62;81.27;101126.09;10417982;28;19931;-67
2022/07/03 07:22:45;;;;;;;;;;;;;;;19.65;80.78;101107.53;10418033;28;20348;-64
2022/07/03 07:27:48;;;;;;;;;;;;;;;19.73;80.67;101095.81;10421785;28;19928;-66
2022/07/03 07:32:52;;;;;;;;;;;;;;;19.74;80.53;101105.47;10426512;28;19925;-64
2022/07/03 07:37:56;;;;;;;;;;;;;;;19.79;80.75;101097.38;10426347;28;19925;-66
2022/07/03 07:42:59;;;;;;;;;;;;;;;19.95;79.46;101096.75;10425803;28;19925;-64
2022/07/03 07:48:04;;;;;;;;;;;;;;;20.08;78.57;101095.41;10425924;28;20245;-69
2022/07/03 07:53:07;;;;;;;;;;;;;;;20.04;77.91;101091.16;10425560;28;19925;-64
2022/07/03 07:58:10;;;;;;;;;;;;;;;20.06;77.57;101091.97;10425482;28;20241;-67
2022/07/03 08:08:35;;;;;;;;;;;;;;;20.32;75.45;101085.72;10424971;28;19926;-65
2022/07/03 08:13:38;;;;;;;;;;;;;;;20.46;76.22;101084.28;10424682;28;19931;-68
2022/07/03 08:18:42;;;;;;;;;;;;;;;20.59;76.03;101082.88;10424526;28;19935;-66
2022/07/03 08:23:46;;;;;;;;;;;;;;;20.57;75.39;101084.72;10424284;28;19990;-66
2022/07/03 08:28:49;;;;;;;;;;;;;;;20.58;73.74;101080.31;10424285;28;19929;-63
2022/07/03 08:33:53;;;;;;;;;;;;;;;20.67;73.83;101077.31;10423948;28;19969;-64
2022/07/03 08:38:56;;;;;;;;;;;;;;;20.73;73.27;101070.91;10423455;28;19925;-65
2022/07/03 08:44:00;;;;;;;;;;;;;;;20.80;73.43;101060.06;10423729;28;19940;-66
2022/07/03 08:49:04;;;;;;;;;;;;;;;20.91;73.04;101046.41;10423283;28;20002;-64
2022/07/03 08:54:07;;;;;;;;;;;;;;;21.00;72.79;101048.72;10423394;28;20358;-64
2022/07/03 08:59:10;;;;;;;;;;;;;;;21.17;71.99;101033.88;10423021;28;20328;-66
2022/07/03 09:04:15;;;;;;;;;;;;;;;21.36;72.38;101041.88;10422064;28;19926;-67
2022/07/03 09:09:18;;;;;;;;;;;;;;;21.56;72.80;101042.72;10422374;28;20272;-64
2022/07/03 09:14:21;;;;;;;;;;;;;;;21.67;71.24;101029.84;10422353;28;20349;-72
2022/07/03 09:19:42;;;;;;;;;;;;;;;21.81;70.92;101026.66;10422033;28;19932;-63
2022/07/03 09:24:45;;;;;;;;;;;;;;;22.13;69.51;101027.78;10421616;28;19925;-65
2022/07/03 09:29:52;;;;;;;;;;;;;;;22.28;70.63;101027.09;10421536;28;19925;-65
2022/07/03 09:35:19;;;;;;;;;;;;;;;22.62;68.93;101017.47;10421850;28;19975;-64
2022/07/03 09:40:24;;;;;;;;;;;;;;;22.88;67.31;101018.84;10421523;28;19935;-64
2022/07/03 09:45:28;;;;;;;;;;;;;;;23.04;68.04;101014.47;10420813;28;19943;-65
2022/07/03 09:50:32;;;;;;;;;;;;;;;23.50;66.60;101019.16;10420716;28;19925;-65
2022/07/03 09:55:35;;;;;;;;;;;;;;;24.15;62.38;101012.09;10420636;28;20252;-66
2022/07/03 10:00:38;;;;;;;;;;;;;;;25.02;60.31;101007.06;10441900;28;19925;-66
2022/07/03 10:05:43;;;;;;;;;;;;;;;25.96;58.00;101007.41;10461464;28;19925;-65
2022/07/03 10:10:47;;;;;;;;;;;;;;;26.57;54.90;100996.38;10462035;28;19931;-66
2022/07/03 10:15:50;;;;;;;;;;;;;;;27.11;54.47;100987.38;10461494;28;19929;-64
2022/07/03 10:20:57;;;;;;;;;;;;;;;27.18;52.58;100978.84;10434263;28;20352;-65
2022/07/03 10:26:01;;;;;;;;;;;;;;;27.75;52.86;100973.94;10419720;28;19979;-66
2022/07/03 10:31:04;;;;;;;;;;;;;;;28.64;51.29;100959.38;10419431;28;19958;-66
2022/07/03 10:36:10;;;;;;;;;;;;;;;29.39;50.25;100955.31;10419153;28;19925;-67
2022/07/03 10:46:37;;;;;;;;;;;;;;;30.31;47.83;100945.16;10419044;28;19925;-67
2022/07/03 10:51:55;;;;;;;;;;;;;;;30.16;46.10;100941.06;10418800;28;19939;-66
2022/07/03 10:57:15;;;;;;;;;;;;;;;30.04;47.01;100944.72;10418613;28;20022;-67
2022/07/03 11:02:19;;;;;;;;;;;;;;;30.33;45.10;100927.16;10417733;28;19925;-65
2022/07/03 11:07:23;;;;;;;;;;;;;;;30.49;44.51;100922.22;10417979;28;19936;-67
2022/07/03 11:12:41;;;;;;;;;;;;;;;31.09;43.93;100919.72;10418019;28;19963;-68
2022/07/03 11:18:07;;;;;;;;;;;;;;;31.48;44.32;100916.25;10417551;28;19951;-63
2022/07/03 11:23:17;;;;;;;;;;;;;;;32.14;43.51;100906.72;10418045;28;20027;-66
2022/07/03 11:28:44;;;;;;;;;;;;;;;32.08;43.48;100895.69;10418256;28;20263;-69
2022/07/03 11:33:48;;;;;;;;;;;;;;;32.48;42.46;100894.59;10417492;28;19936;-65
2022/07/03 11:39:02;;;;;;;;;;;;;;;32.21;41.74;100885.50;10417467;28;19939;-69
2022/07/03 11:44:06;;;;;;;;;;;;;;;32.46;42.49;100880.44;10417590;28;19929;-65
2022/07/03 11:49:09;;;;;;;;;;;;;;;32.98;40.21;100875.56;10417942;28;20016;-66
2022/07/03 11:54:14;;;;;;;;;;;;;;;32.63;41.10;100877.00;10417334;28;19926;-67
2022/07/03 11:59:17;;;;;;;;;;;;;;;33.68;40.99;100868.63;10416982;28;20261;-69
2022/07/03 12:04:26;;;;;;;;;;;;;;;34.32;38.77;100868.47;10417270;28;19925;-66
2022/07/03 12:09:33;;;;;;;;;;;;;;;32.94;40.87;100868.78;10416934;28;19925;-67
2022/07/03 12:14:40;;;;;;;;;;;;;;;30.84;45.58;100866.47;10421742;28;20340;-68
2022/07/03 12:19:47;;;;;;;;;;;;;;;31.34;43.76;100857.56;10424252;28;19925;-66
2022/07/03 12:24:57;;;;;;;;;;;;;;;31.79;42.58;100851.78;10423965;28;20023;-67
2022/07/03 12:30:00;;;;;;;;;;;;;;;32.23;43.24;100856.66;10424044;28;20349;-68
2022/07/03 12:35:04;;;;;;;;;;;;;;;31.89;43.18;100856.22;10424170;28;20310;-64
2022/07/03 12:40:09;;;;;;;;;;;;;;;30.10;47.66;100862.03;10423808;28;19947;-66
2022/07/03 12:45:13;;;;;;;;;;;;;;;29.54;47.29;100863.13;10423188;28;20394;-67
2022/07/03 12:50:19;;;;;;;;;;;;;;;28.81;46.42;100861.88;10423835;28;19924;-66
2022/07/03 12:55:27;;;;;;;;;;;;;;;28.32;49.91;100860.25;10422878;28;19926;-69
2022/07/03 13:00:30;;;;;;;;;;;;;;;28.39;49.65;100861.47;10423096;28;20008;-66
2022/07/03 13:05:33;;;;;;;;;;;;;;;28.65;49.92;100851.50;10422646;28;19925;-66
2022/07/03 13:10:37;;;;;;;;;;;;;;;29.23;49.28;100856.69;10422420;28;20012;-66
2022/07/03 13:15:40;;;;;;;;;;;;;;;29.26;50.13;100848.44;10422631;28;20024;-67
2022/07/03 13:20:43;;;;;;;;;;;;;;;30.19;48.08;100833.63;10422210;28;19925;-65
2022/07/03 13:25:47;;;;;;;;;;;;;;;29.85;49.87;100843.66;10421114;28;20264;-68
2022/07/03 13:30:50;;;;;;;;;;;;;;;29.34;48.90;100834.44;10421622;28;20025;-67
2022/07/03 13:35:53;;;;;;;;;;;;;;;28.66;49.58;100826.50;10421563;28;19925;-66
2022/07/03 13:40:58;;;;;;;;;;;;;;;28.84;51.37;100826.88;10421010;28;20360;-68
2022/07/03 13:46:01;;;;;;;;;;;;;;;29.83;50.20;100818.81;10421178;28;19936;-66
2022/07/03 13:51:04;;;;;;;;;;;;;;;30.41;48.34;100817.47;10420757;28;19925;-67
2022/07/03 13:56:08;;;;;;;;;;;;;;;30.60;46.61;100806.88;10420566;28;20348;-67
2022/07/03 14:01:11;;;;;;;;;;;;;;;30.71;47.38;100814.88;10420561;28;19925;-67
2022/07/03 14:06:15;;;;;;;;;;;;;;;31.13;47.77;100813.00;10420280;28;19925;-67
2022/07/03 14:11:19;;;;;;;;;;;;;;;30.64;48.71;100808.34;10420371;28;19933;-67
2022/07/03 14:16:23;;;;;;;;;;;;;;;30.90;50.49;100809.63;10419993;28;20012;-65
2022/07/03 14:21:26;;;;;;;;;;;;;;;30.73;50.89;100807.53;10419784;28;20011;-67
2022/07/03 14:37:16;;;;;;;;;;;;;;;28.63;55.79;100800.00;10419309;28;19947;-69
2022/07/03 14:42:20;;;;;;;;;;;;;;;28.28;57.16;100801.84;10418999;28;20404;-68
2022/07/03 14:47:23;;;;;;;;;;;;;;;27.79;58.72;100804.66;10418659;28;19929;-67
2022/07/03 14:52:27;;;;;;;;;;;;;;;27.57;59.35;100798.34;10418977;28;19925;-66
2022/07/03 14:57:41;;;;;;;;;;;;;;;27.46;58.47;100792.94;10418806;28;19935;-67
2022/07/03 15:02:45;;;;;;;;;;;;;;;28.26;56.74;100788.63;10418426;28;19957;-68
2022/07/03 15:07:55;;;;;;;;;;;;;;;28.16;56.11;100781.41;10418334;28;19979;-66
2022/07/03 15:13:00;;;;;;;;;;;;;;;28.58;55.22;100777.31;10418293;28;20046;-66
2022/07/03 15:18:04;;;;;;;;;;;;;;;28.85;56.39;100777.81;10418039;28;19978;-67
2022/07/03 15:23:07;;;;;;;;;;;;;;;28.83;56.37;100769.91;10418040;28;20021;-66
2022/07/03 15:28:11;;;;;;;;;;;;;;;28.89;55.48;100768.59;10417827;28;20031;-68
2022/07/03 15:33:14;;;;;;;;;;;;;;;28.87;54.25;100763.31;10418091;28;20366;-66
2022/07/03 15:38:24;;;;;;;;;;;;;;;28.65;55.59;100763.31;10417683;28;20268;-67
2022/07/03 15:43:48;;;;;;;;;;;;;;;28.26;57.81;100756.56;10418014;28;20260;-67
2022/07/03 15:48:54;;;;;;;;;;;;;;;28.19;58.19;100752.66;10421015;28;20002;-66
2022/07/03 15:53:58;;;;;;;;;;;;;;;28.07;58.57;100758.94;10425433;28;19936;-68
2022/07/03 15:59:04;;;;;;;;;;;;;;;28.04;60.14;100759.16;10425199;28;19990;-69
2022/07/03 16:04:08;;;;;;;;;;;;;;;27.78;60.51;100757.59;10425096;28;20276;-68
2022/07/03 16:09:11;;;;;;;;;;;;;;;27.68;61.27;100756.56;10424520;28;19964;-68
2022/07/03 16:14:16;;;;;;;;;;;;;;;27.62;62.52;100766.84;10424647;28;19925;-67
2022/07/03 16:19:21;;;;;;;;;;;;;;;27.10;63.90;100765.28;10424317;28;19925;-67
2022/07/03 16:24:24;;;;;;;;;;;;;;;26.77;66.04;100761.47;10424309;28;19929;-66
2022/07/03 16:29:29;;;;;;;;;;;;;;;26.33;67.64;100767.22;10424200;28;20250;-68
2022/07/03 16:34:35;;;;;;;;;;;;;;;26.05;69.01;100770.03;10423785;28;20222;-65
2022/07/03 16:39:38;;;;;;;;;;;;;;;25.85;69.65;100770.50;10423821;28;19925;-66
2022/07/03 16:44:46;;;;;;;;;;;;;;;25.62;72.40;100771.16;10423434;28;19978;-66
2022/07/03 16:49:49;;;;;;;;;;;;;;;25.31;72.04;100768.75;10423348;28;19926;-63
2022/07/03 16:54:58;;;;;;;;;;;;;;;25.05;74.70;100763.28;10423103;28;19956;-63
2022/07/03 17:00:03;;;;;;;;;;;;;;;24.86;74.78;100770.72;10419368;28;19925;-64
2022/07/03 17:05:09;;;;;;;;;;;;;;;25.06;74.37;100772.97;10422966;28;19925;-65
2022/07/03 17:10:13;;;;;;;;;;;;;;;24.93;75.39;100774.69;10422529;28;19935;-65
2022/07/03 17:15:18;;;;;;;;;;;;;;;24.92;75.42;100770.31;10422286;28;20267;-68
2022/07/03 17:20:23;;;;;;;;;;;;;;;24.75;76.46;100780.25;10422223;28;19925;-65
2022/07/03 17:25:27;;;;;;;;;;;;;;;24.62;76.78;100771.31;10422306;28;19936;-66
2022/07/03 17:30:35;;;;;;;;;;;;;;;24.68;77.43;100771.78;10421750;28;19925;-67
2022/07/03 17:35:39;;;;;;;;;;;;;;;24.72;77.42;100778.66;10421371;28;19925;-67
2022/07/03 17:40:44;;;;;;;;;;;;;;;24.65;78.10;100772.00;10421115;28;19932;-68
2022/07/03 17:45:49;;;;;;;;;;;;;;;24.55;79.22;100772.66;10421030;28;20310;-67
2022/07/03 17:50:55;;;;;;;;;;;;;;;24.57;78.41;100771.63;10421022;28;20019;-66
2022/07/03 17:55:59;;;;;;;;;;;;;;;24.55;78.62;100770.84;10420770;28;19925;-67
2022/07/03 18:01:03;;;;;;;;;;;;;;;24.41;79.81;100781.44;10420676;28;20408;-63
2022/07/03 18:06:09;;;;;;;;;;;;;;;24.38;80.07;100771.03;10420169;28;20340;-65
2022/07/03 18:11:14;;;;;;;;;;;;;;;24.35;79.15;100773.84;10420487;28;19939;-69
2022/07/03 18:16:19;;;;;;;;;;;;;;;24.33;78.59;100759.84;10419940;28;20264;-67
2022/07/03 18:21:22;;;;;;;;;;;;;;;24.22;79.90;100764.91;10419383;28;19959;-65
2022/07/03 18:26:26;;;;;;;;;;;;;;;24.19;80.15;100775.72;10419352;28;20259;-69
2022/07/03 18:31:31;;;;;;;;;;;;;;;24.23;79.78;100763.13;10419406;28;19925;-66
2022/07/03 18:36:34;;;;;;;;;;;;;;;24.05;81.00;100770.38;10420401;28;19939;-68
2022/07/03 18:41:38;;;;;;;;;;;;;;;23.96;80.77;100776.19;10419143;28;19947;-68
2022/07/03 18:46:42;;;;;;;;;;;;;;;23.81;82.03;100769.13;10418923;28;19925;-69
2022/07/03 18:51:48;;;;;;;;;;;;;;;23.71;83.47;100768.78;10418757;28;20352;-69
2022/07/03 18:56:58;;;;;;;;;;;;;;;23.57;84.45;100776.66;10418711;28;19978;-67
2022/07/03 19:02:03;;;;;;;;;;;;;;;23.47;85.33;100779.94;10418828;28;19925;-64
2022/07/03 19:07:13;;;;;;;;;;;;;;;23.28;86.20;100779.28;10418437;28;19931;-68
2022/07/03 19:12:24;;;;;;;;;;;;;;;23.17;87.63;100781.59;10418033;28;19932;-67
2022/07/03 19:17:30;;;;;;;;;;;;;;;23.11;88.14;100796.03;10418013;28;19926;-65
2022/07/03 19:22:33;;;;;;;;;;;;;;;23.02;88.47;100795.69;10420092;28;19925;-68
2022/07/03 19:27:37;;;;;;;;;;;;;;;22.86;89.79;100793.88;10426427;28;20252;-69
2022/07/03 19:32:44;;;;;;;;;;;;;;;22.78;90.90;100784.59;10426414;28;19925;-67
2022/07/03 19:37:47;;;;;;;;;;;;;;;22.70;91.90;100787.69;10426133;28;20348;-70
2022/07/03 19:42:50;;;;;;;;;;;;;;;22.63;91.78;100791.59;10426584;28;19925;-64
2022/07/03 19:47:55;;;;;;;;;;;;;;;22.50;93.29;100793.13;10425780;28;19925;-69
2022/07/03 19:52:58;;;;;;;;;;;;;;;22.44;94.24;100788.16;10425726;28;19925;-66
2022/07/03 19:58:01;;;;;;;;;;;;;;;22.34;95.30;100784.28;10425180;28;19951;-67
2022/07/03 20:03:07;;;;;;;;;;;;;;;22.23;95.52;100791.03;10425246;28;19925;-70
2022/07/03 20:08:10;;;;;;;;;;;;;;;22.16;96.89;100789.66;10425038;28;19935;-71
2022/07/03 20:13:13;;;;;;;;;;;;;;;22.05;98.04;100797.28;10425143;28;19925;-66
2022/07/03 20:18:18;;;;;;;;;;;;;;;21.97;99.76;100784.41;10424378;28;20255;-68
2022/07/03 20:23:21;;;;;;;;;;;;;;;21.92;100.00;100789.09;10424377;28;20043;-70
2022/07/03 20:28:24;;;;;;;;;;;;;;;21.88;100.00;100790.19;10423930;28;20350;-65
2022/07/03 20:33:29;;;;;;;;;;;;;;;21.81;100.00;100787.91;10423698;28;20413;-60
2022/07/03 20:38:32;;;;;;;;;;;;;;;21.71;100.00;100798.03;10423812;28;19925;-59
2022/07/03 20:43:55;;;;;;;;;;;;;;;21.61;100.00;100802.91;10421950;28;19929;-62
2022/07/03 20:49:00;;;;;;;;;;;;;;;21.54;100.00;100805.91;10423245;28;20251;-61
2022/07/03 20:54:03;;;;;;;;;;;;;;;21.45;100.00;100806.38;10423258;28;20028;-57
2022/07/03 20:59:06;;;;;;;;;;;;;;;21.36;100.00;100801.53;10423185;28;19935;-60
2022/07/03 21:04:11;;;;;;;;;;;;;;;21.28;100.00;100803.66;10422994;28;19925;-62
2022/07/03 21:09:13;;;;;;;;;;;;;;;21.22;100.00;100809.22;10422520;28;20328;-58
2022/07/03 21:14:20;;;;;;;;;;;;;;;21.16;100.00;100809.50;10422493;28;19935;-60
2022/07/03 21:19:44;;;;;;;;;;;;;;;21.13;100.00;100810.50;10421963;28;19925;-61
2022/07/03 21:24:47;;;;;;;;;;;;;;;21.15;100.00;100810.44;10422331;28;19939;-58
2022/07/03 21:29:50;;;;;;;;;;;;;;;21.02;100.00;100811.94;10421721;28;19929;-63
2022/07/03 21:34:55;;;;;;;;;;;;;;;21.01;100.00;100812.84;10421672;28;19925;-62
2022/07/03 21:39:58;;;;;;;;;;;;;;;21.02;100.00;100809.31;10421665;28;19925;-60
2022/07/03 21:45:01;;;;;;;;;;;;;;;20.92;100.00;100811.44;10420839;28;19925;-62
2022/07/03 21:50:06;;;;;;;;;;;;;;;20.90;100.00;100813.28;10420820;28;19925;-62
2022/07/03 21:55:09;;;;;;;;;;;;;;;20.81;100.00;100805.81;10420750;28;20008;-61
2022/07/03 22:00:13;;;;;;;;;;;;;;;20.79;100.00;100804.16;10420674;28;20256;-60
2022/07/03 22:05:18;;;;;;;;;;;;;;;20.75;100.00;100800.81;10420638;28;20337;-60
2022/07/03 22:10:21;;;;;;;;;;;;;;;20.56;100.00;100792.84;10420308;28;19936;-60
2022/07/03 22:15:24;;;;;;;;;;;;;;;20.61;100.00;100798.78;10420124;28;19925;-62
2022/07/03 22:20:28;;;;;;;;;;;;;;;20.63;100.00;100798.72;10419743;28;20015;-62
2022/07/03 22:25:31;;;;;;;;;;;;;;;20.48;100.00;100789.66;10420416;28;19925;-63
2022/07/03 22:30:34;;;;;;;;;;;;;;;20.37;100.00;100778.75;10419493;28;20343;-61
2022/07/03 22:35:39;;;;;;;;;;;;;;;20.43;100.00;100781.09;10419230;28;19925;-54
2022/07/03 22:40:42;;;;;;;;;;;;;;;20.42;100.00;100774.13;10419191;28;19935;-60
2022/07/03 22:45:45;;;;;;;;;;;;;;;20.46;100.00;100770.44;10419103;28;20263;-63
2022/07/03 22:50:49;;;;;;;;;;;;;;;20.38;100.00;100763.81;10419020;28;19929;-66
2022/07/03 22:55:52;;;;;;;;;;;;;;;20.30;100.00;100758.84;10418486;28;19951;-57
2022/07/03 23:00:55;;;;;;;;;;;;;;;20.18;100.00;100763.78;10418610;28;19925;-58
2022/07/03 23:05:59;;;;;;;;;;;;;;;20.10;100.00;100758.81;10418215;28;20355;-60
2022/07/03 23:11:02;;;;;;;;;;;;;;;19.99;100.00;100761.03;10418225;28;19925;-61
2022/07/03 23:16:05;;;;;;;;;;;;;;;20.05;100.00;100759.94;10418336;28;19935;-63
2022/07/03 23:21:09;;;;;;;;;;;;;;;19.94;100.00;100760.38;10418207;28;19925;-62
2022/07/03 23:26:13;;;;;;;;;;;;;;;19.93;100.00;100749.91;10418091;28;19970;-71
2022/07/03 23:31:16;;;;;;;;;;;;;;;19.85;100.00;100744.09;10418034;28;20329;-68
2022/07/03 23:36:20;;;;;;;;;;;;;;;19.83;100.00;100746.78;10417908;28;19925;-67
2022/07/03 23:41:23;;;;;;;;;;;;;;;19.78;100.00;100748.75;10417616;28;19951;-67
2022/07/03 23:46:26;;;;;;;;;;;;;;;19.71;100.00;100747.28;10418040;28;19925;-70
2022/07/03 23:51:31;;;;;;;;;;;;;;;19.63;100.00;100744.13;10417625;28;20397;-69
2022/07/03 23:56:36;;;;;;;;;;;;;;;19.62;100.00;100736.31;10417680;28;20023;-70
